sensor_id;sensor_type;location;lat;lon;timestamp;P1;durP1;ratioP1;P2;durP2;ratioP2
48026;SDS011;50714;49.208;5.364;2023-06-01T00:06:00;1.42;;;1.00;;
48026;SDS011;50714;49.208;5.364;2023-06-01T00:16:00;1.95;;;1.15;;
48026;SDS011;50714;49.208;5.364;2023-06-01T00:26:00;1.20;;;1.00;;
48026;SDS011;50714;49.208;5.364;2023-06-01T00:36:02;1.65;;;1.30;;
48026;SDS011;50714;49.208;5.364;2023-06-01T00:46:02;2.13;;;1.30;;
48026;SDS011;50714;49.208;5.364;2023-06-01T00:56:03;1.48;;;1.00;;
48026;SDS011;50714;49.208;5.364;2023-06-01T01:06:18;2.30;;;1.33;;
48026;SDS011;50714;49.208;5.364;2023-06-01T01:37:04;2.40;;;1.30;;
48026;SDS011;50714;49.208;5.364;2023-06-01T01:47:25;2.60;;;1.30;;
48026;SDS011;50714;49.208;5.364;2023-06-01T01:57:31;2.08;;;1.48;;
48026;SDS011;50714;49.208;5.364;2023-06-01T02:07:34;3.00;;;1.40;;
48026;SDS011;50714;49.208;5.364;2023-06-01T02:17:34;1.52;;;1.10;;
48026;SDS011;50714;49.208;5.364;2023-06-01T02:27:37;1.73;;;1.00;;
48026;SDS011;50714;49.208;5.364;2023-06-01T02:37:38;1.67;;;1.23;;
48026;SDS011;50714;49.208;5.364;2023-06-01T02:47:38;2.85;;;1.30;;
48026;SDS011;50714;49.208;5.364;2023-06-01T02:57:38;2.88;;;1.60;;
48026;SDS011;50714;49.208;5.364;2023-06-01T03:07:39;1.25;;;0.95;;
48026;SDS011;50714;49.208;5.364;2023-06-01T03:17:39;1.20;;;1.02;;
48026;SDS011;50714;49.208;5.364;2023-06-01T03:27:39;1.73;;;1.17;;
48026;SDS011;50714;49.208;5.364;2023-06-01T03:37:41;2.65;;;1.73;;
48026;SDS011;50714;49.208;5.364;2023-06-01T03:47:42;1.70;;;1.20;;
48026;SDS011;50714;49.208;5.364;2023-06-01T03:57:42;2.05;;;1.38;;
48026;SDS011;50714;49.208;5.364;2023-06-01T04:07:43;1.02;;;0.93;;
48026;SDS011;50714;49.208;5.364;2023-06-01T04:17:45;2.13;;;1.35;;
48026;SDS011;50714;49.208;5.364;2023-06-01T04:27:46;3.30;;;1.48;;
48026;SDS011;50714;49.208;5.364;2023-06-01T04:37:48;3.13;;;1.45;;
48026;SDS011;50714;49.208;5.364;2023-06-01T04:47:50;1.90;;;1.40;;
48026;SDS011;50714;49.208;5.364;2023-06-01T04:57:50;2.33;;;1.48;;
48026;SDS011;50714;49.208;5.364;2023-06-01T05:07:50;2.30;;;1.30;;
48026;SDS011;50714;49.208;5.364;2023-06-01T05:17:51;2.33;;;1.23;;
48026;SDS011;50714;49.208;5.364;2023-06-01T05:27:51;1.20;;;1.08;;
48026;SDS011;50714;49.208;5.364;2023-06-01T05:37:51;1.77;;;1.23;;
48026;SDS011;50714;49.208;5.364;2023-06-01T05:47:52;1.90;;;1.40;;
48026;SDS011;50714;49.208;5.364;2023-06-01T05:57:52;1.10;;;1.00;;
48026;SDS011;50714;49.208;5.364;2023-06-01T06:07:52;1.50;;;1.15;;
48026;SDS011;50714;49.208;5.364;2023-06-01T06:17:53;2.22;;;1.50;;
48026;SDS011;50714;49.208;5.364;2023-06-01T06:27:53;1.58;;;1.23;;
48026;SDS011;50714;49.208;5.364;2023-06-01T06:37:54;1.38;;;1.15;;
48026;SDS011;50714;49.208;5.364;2023-06-01T06:47:55;1.65;;;1.20;;
48026;SDS011;50714;49.208;5.364;2023-06-01T06:57:55;4.10;;;1.00;;
48026;SDS011;50714;49.208;5.364;2023-06-01T07:07:55;1.95;;;1.23;;
48026;SDS011;50714;49.208;5.364;2023-06-01T07:17:56;2.35;;;1.33;;
48026;SDS011;50714;49.208;5.364;2023-06-01T07:27:56;2.00;;;1.30;;
48026;SDS011;50714;49.208;5.364;2023-06-01T07:37:56;2.67;;;1.38;;
48026;SDS011;50714;49.208;5.364;2023-06-01T07:47:57;2.20;;;1.40;;
48026;SDS011;50714;49.208;5.364;2023-06-01T07:57:58;1.85;;;1.30;;
48026;SDS011;50714;49.208;5.364;2023-06-01T08:07:58;1.98;;;1.20;;
48026;SDS011;50714;49.208;5.364;2023-06-01T08:17:59;2.00;;;1.30;;
48026;SDS011;50714;49.208;5.364;2023-06-01T08:28:00;1.75;;;1.08;;
48026;SDS011;50714;49.208;5.364;2023-06-01T08:38:01;0.98;;;0.88;;
48026;SDS011;50714;49.208;5.364;2023-06-01T08:48:01;2.33;;;1.50;;
48026;SDS011;50714;49.208;5.364;2023-06-01T08:58:05;1.50;;;1.15;;
48026;SDS011;50714;49.208;5.364;2023-06-01T09:08:06;1.23;;;0.90;;
48026;SDS011;50714;49.208;5.364;2023-06-01T09:18:07;2.10;;;1.15;;
48026;SDS011;50714;49.208;5.364;2023-06-01T09:28:10;1.30;;;0.85;;
48026;SDS011;50714;49.208;5.364;2023-06-01T09:38:10;1.35;;;0.98;;
48026;SDS011;50714;49.208;5.364;2023-06-01T09:48:16;1.00;;;0.83;;
48026;SDS011;50714;49.208;5.364;2023-06-01T09:58:19;1.55;;;1.10;;
48026;SDS011;50714;49.208;5.364;2023-06-01T10:08:23;1.80;;;0.82;;
48026;SDS011;50714;49.208;5.364;2023-06-01T10:18:23;2.30;;;1.10;;
48026;SDS011;50714;49.208;5.364;2023-06-01T10:28:24;1.50;;;1.10;;
48026;SDS011;50714;49.208;5.364;2023-06-01T10:38:27;1.33;;;1.00;;
48026;SDS011;50714;49.208;5.364;2023-06-01T11:09:08;2.58;;;1.10;;
48026;SDS011;50714;49.208;5.364;2023-06-01T11:19:10;2.15;;;1.10;;
48026;SDS011;50714;49.208;5.364;2023-06-01T11:29:21;1.65;;;1.10;;
48026;SDS011;50714;49.208;5.364;2023-06-01T11:39:24;2.65;;;1.10;;
48026;SDS011;50714;49.208;5.364;2023-06-01T11:49:25;1.58;;;0.85;;
48026;SDS011;50714;49.208;5.364;2023-06-01T11:59:25;1.42;;;1.00;;
48026;SDS011;50714;49.208;5.364;2023-06-01T12:09:28;1.30;;;1.10;;
48026;SDS011;50714;49.208;5.364;2023-06-01T12:19:29;1.13;;;1.00;;
48026;SDS011;50714;49.208;5.364;2023-06-01T12:29:35;0.87;;;0.73;;
48026;SDS011;50714;49.208;5.364;2023-06-01T12:39:41;2.08;;;1.20;;
48026;SDS011;50714;49.208;5.364;2023-06-01T12:50:00;1.52;;;1.00;;
48026;SDS011;50714;49.208;5.364;2023-06-01T13:00:02;2.35;;;1.00;;
48026;SDS011;50714;49.208;5.364;2023-06-01T13:10:04;2.25;;;0.90;;
48026;SDS011;50714;49.208;5.364;2023-06-01T13:20:05;0.73;;;0.70;;
48026;SDS011;50714;49.208;5.364;2023-06-01T13:30:07;1.80;;;0.93;;
48026;SDS011;50714;49.208;5.364;2023-06-01T13:40:07;0.93;;;0.80;;
48026;SDS011;50714;49.208;5.364;2023-06-01T13:50:08;2.10;;;1.50;;
48026;SDS011;50714;49.208;5.364;2023-06-01T14:00:09;1.55;;;0.90;;
48026;SDS011;50714;49.208;5.364;2023-06-01T14:10:10;1.00;;;0.63;;
48026;SDS011;50714;49.208;5.364;2023-06-01T14:20:11;2.03;;;0.98;;
48026;SDS011;50714;49.208;5.364;2023-06-01T14:30:11;1.75;;;0.90;;
48026;SDS011;50714;49.208;5.364;2023-06-01T14:40:12;1.10;;;0.80;;
48026;SDS011;50714;49.208;5.364;2023-06-01T14:50:12;1.15;;;0.80;;
48026;SDS011;50714;49.208;5.364;2023-06-01T15:00:13;0.80;;;0.80;;
48026;SDS011;50714;49.208;5.364;2023-06-01T15:10:14;1.75;;;0.95;;
48026;SDS011;50714;49.208;5.364;2023-06-01T15:20:14;1.00;;;0.80;;
48026;SDS011;50714;49.208;5.364;2023-06-01T15:30:15;4.15;;;1.17;;
48026;SDS011;50714;49.208;5.364;2023-06-01T15:40:15;1.88;;;0.80;;
48026;SDS011;50714;49.208;5.364;2023-06-01T15:50:15;1.40;;;1.10;;
48026;SDS011;50714;49.208;5.364;2023-06-01T16:00:16;1.85;;;1.10;;
48026;SDS011;50714;49.208;5.364;2023-06-01T16:10:16;2.63;;;1.13;;
48026;SDS011;50714;49.208;5.364;2023-06-01T16:20:17;1.00;;;0.90;;
48026;SDS011;50714;49.208;5.364;2023-06-01T16:30:17;1.58;;;1.08;;
48026;SDS011;50714;49.208;5.364;2023-06-01T16:40:18;1.30;;;0.90;;
48026;SDS011;50714;49.208;5.364;2023-06-01T16:50:18;3.97;;;1.73;;
48026;SDS011;50714;49.208;5.364;2023-06-01T17:00:19;3.45;;;1.90;;
48026;SDS011;50714;49.208;5.364;2023-06-01T17:10:19;1.63;;;1.30;;
48026;SDS011;50714;49.208;5.364;2023-06-01T17:20:20;3.20;;;1.90;;
48026;SDS011;50714;49.208;5.364;2023-06-01T17:30:20;4.35;;;3.03;;
48026;SDS011;50714;49.208;5.364;2023-06-01T17:40:21;6.72;;;3.85;;
48026;SDS011;50714;49.208;5.364;2023-06-01T17:50:21;5.15;;;3.67;;
48026;SDS011;50714;49.208;5.364;2023-06-01T18:00:21;5.25;;;3.88;;
48026;SDS011;50714;49.208;5.364;2023-06-01T18:10:23;4.47;;;3.45;;
48026;SDS011;50714;49.208;5.364;2023-06-01T18:20:23;4.10;;;3.28;;
48026;SDS011;50714;49.208;5.364;2023-06-01T18:30:24;4.88;;;3.30;;
48026;SDS011;50714;49.208;5.364;2023-06-01T18:40:24;5.97;;;3.47;;
48026;SDS011;50714;49.208;5.364;2023-06-01T18:50:24;4.75;;;3.15;;
48026;SDS011;50714;49.208;5.364;2023-06-01T19:00:29;5.25;;;3.40;;
48026;SDS011;50714;49.208;5.364;2023-06-01T19:31:11;4.82;;;3.10;;
48026;SDS011;50714;49.208;5.364;2023-06-01T19:41:12;4.70;;;3.35;;
48026;SDS011;50714;49.208;5.364;2023-06-01T19:51:16;4.68;;;3.13;;
48026;SDS011;50714;49.208;5.364;2023-06-01T20:01:18;3.95;;;3.03;;
48026;SDS011;50714;49.208;5.364;2023-06-01T20:11:19;3.90;;;3.08;;
48026;SDS011;50714;49.208;5.364;2023-06-01T20:21:20;4.00;;;2.85;;
48026;SDS011;50714;49.208;5.364;2023-06-01T20:31:23;4.10;;;2.88;;
48026;SDS011;50714;49.208;5.364;2023-06-01T20:41:28;4.07;;;2.20;;
48026;SDS011;50714;49.208;5.364;2023-06-01T20:51:31;3.60;;;2.70;;
48026;SDS011;50714;49.208;5.364;2023-06-01T21:01:33;3.15;;;2.28;;
48026;SDS011;50714;49.208;5.364;2023-06-01T21:11:36;3.38;;;2.53;;
48026;SDS011;50714;49.208;5.364;2023-06-01T21:21:37;3.40;;;2.40;;
48026;SDS011;50714;49.208;5.364;2023-06-01T21:31:38;2.83;;;2.25;;
48026;SDS011;50714;49.208;5.364;2023-06-01T21:41:38;5.32;;;2.17;;
48026;SDS011;50714;49.208;5.364;2023-06-01T21:51:39;3.53;;;2.10;;
48026;SDS011;50714;49.208;5.364;2023-06-01T22:01:39;3.88;;;2.28;;
48026;SDS011;50714;49.208;5.364;2023-06-01T22:11:39;3.67;;;2.20;;
48026;SDS011;50714;49.208;5.364;2023-06-01T22:21:40;2.75;;;2.15;;
48026;SDS011;50714;49.208;5.364;2023-06-01T22:31:40;3.67;;;2.20;;
48026;SDS011;50714;49.208;5.364;2023-06-01T22:41:40;2.35;;;1.90;;
48026;SDS011;50714;49.208;5.364;2023-06-01T22:51:41;4.60;;;2.40;;
48026;SDS011;50714;49.208;5.364;2023-06-01T23:01:41;3.45;;;2.30;;
48026;SDS011;50714;49.208;5.364;2023-06-01T23:11:41;3.47;;;2.50;;
48026;SDS011;50714;49.208;5.364;2023-06-01T23:21:45;4.43;;;2.88;;
48026;SDS011;50714;49.208;5.364;2023-06-01T23:31:48;2.92;;;2.10;;
48026;SDS011;50714;49.208;5.364;2023-06-01T23:41:48;2.35;;;2.00;;
48026;SDS011;50714;49.208;5.364;2023-06-01T23:51:49;5.22;;;2.60;;
